Arden, Nevada
Current Conditions -  °F | °C
As of 1:56 PM on Tuesday 21 Oct 2014 (Local Time) from KLAS Reporting Station
Scattered Clouds Scattered Clouds  
Wind Chill: 85°   Ceiling: Unl
Heat Index: 85°   Visibility: 10mi
Dew Point: 24°   Wind: 20mph
Humidity: 11%   Direction: 220°SW
Pressure: 29.79"   Gusts: 25mph
Location:  36.079°N, 115.211°W
Report Text: KLAS 212056Z 22017G22KT 10SM SCT250 29/M04 A2979 RMK AO2 PK WND 20026/2024 SLP066 T02941044 57022
Loading
Personal Weather Stations






























Interactive Weather Map New forecast layout! Learn more

10-Day Weather Forecast

Advertisements
Track Severe Weather on mobile